sensor_id;sensor_type;location;lat;lon;timestamp;temperature;humidity
21551;DHT22;10936;49.836;7.078;2022-12-11T07:02:31;18.00;92.40
21551;DHT22;10936;49.836;7.078;2022-12-11T07:04:57;18.00;92.40
21551;DHT22;10936;49.836;7.078;2022-12-11T07:07:22;18.00;92.40
21551;DHT22;10936;49.836;7.078;2022-12-11T07:09:48;18.00;92.40
21551;DHT22;10936;49.836;7.078;2022-12-11T07:12:14;18.00;92.40
21551;DHT22;10936;49.836;7.078;2022-12-11T07:14:40;18.00;92.40
21551;DHT22;10936;49.836;7.078;2022-12-11T07:17:06;18.00;92.40
21551;DHT22;10936;49.836;7.078;2022-12-11T07:19:32;18.00;92.40
21551;DHT22;10936;49.836;7.078;2022-12-11T07:21:57;18.00;92.40
21551;DHT22;10936;49.836;7.078;2022-12-11T07:24:23;18.00;92.40
21551;DHT22;10936;49.836;7.078;2022-12-11T07:26:48;18.00;92.40
21551;DHT22;10936;49.836;7.078;2022-12-11T07:29:14;18.00;92.40
21551;DHT22;10936;49.836;7.078;2022-12-11T07:31:39;18.00;92.40
21551;DHT22;10936;49.836;7.078;2022-12-11T07:34:05;18.00;92.40
21551;DHT22;10936;49.836;7.078;2022-12-11T07:36:32;18.00;92.40
21551;DHT22;10936;49.836;7.078;2022-12-11T07:38:58;18.00;92.40
21551;DHT22;10936;49.836;7.078;2022-12-11T07:41:24;18.00;92.70
21551;DHT22;10936;49.836;7.078;2022-12-11T07:43:52;18.00;92.40
21551;DHT22;10936;49.836;7.078;2022-12-11T07:46:20;18.00;92.40
21551;DHT22;10936;49.836;7.078;2022-12-11T07:48:47;18.00;92.40
21551;DHT22;10936;49.836;7.078;2022-12-11T07:51:15;18.00;92.30
21551;DHT22;10936;49.836;7.078;2022-12-11T07:53:46;18.00;92.40
21551;DHT22;10936;49.836;7.078;2022-12-11T07:56:12;18.00;92.40
21551;DHT22;10936;49.836;7.078;2022-12-11T07:58:38;18.00;92.40
21551;DHT22;10936;49.836;7.078;2022-12-11T08:01:15;18.00;92.40
21551;DHT22;10936;49.836;7.078;2022-12-11T08:03:41;18.00;92.40
21551;DHT22;10936;49.836;7.078;2022-12-11T08:06:08;18.00;92.40
21551;DHT22;10936;49.836;7.078;2022-12-11T08:08:34;18.00;92.40
21551;DHT22;10936;49.836;7.078;2022-12-11T08:11:03;18.00;92.40
21551;DHT22;10936;49.836;7.078;2022-12-11T08:13:29;18.00;92.30
21551;DHT22;10936;49.836;7.078;2022-12-11T08:15:54;18.00;92.30
21551;DHT22;10936;49.836;7.078;2022-12-11T08:18:20;18.00;92.30
21551;DHT22;10936;49.836;7.078;2022-12-11T08:20:45;18.00;92.30
21551;DHT22;10936;49.836;7.078;2022-12-11T08:23:11;18.00;92.30
21551;DHT22;10936;49.836;7.078;2022-12-11T08:25:36;18.00;92.30
21551;DHT22;10936;49.836;7.078;2022-12-11T08:28:02;18.00;92.30
21551;DHT22;10936;49.836;7.078;2022-12-11T08:30:28;18.00;92.30
21551;DHT22;10936;49.836;7.078;2022-12-11T08:32:54;18.00;92.40
21551;DHT22;10936;49.836;7.078;2022-12-11T08:35:19;18.00;92.30
21551;DHT22;10936;49.836;7.078;2022-12-11T08:37:45;17.90;92.30
21551;DHT22;10936;49.836;7.078;2022-12-11T08:40:11;18.00;92.30
21551;DHT22;10936;49.836;7.078;2022-12-11T08:42:37;18.00;92.40
21551;DHT22;10936;49.836;7.078;2022-12-11T08:45:03;18.00;92.30
21551;DHT22;10936;49.836;7.078;2022-12-11T08:47:29;17.90;92.30
21551;DHT22;10936;49.836;7.078;2022-12-11T08:49:54;18.00;92.40
21551;DHT22;10936;49.836;7.078;2022-12-11T08:52:21;18.00;92.40
21551;DHT22;10936;49.836;7.078;2022-12-11T08:54:47;18.00;92.30
21551;DHT22;10936;49.836;7.078;2022-12-11T08:57:12;18.00;92.30
21551;DHT22;10936;49.836;7.078;2022-12-11T08:59:38;18.00;92.30
21551;DHT22;10936;49.836;7.078;2022-12-11T09:02:04;18.00;92.30
21551;DHT22;10936;49.836;7.078;2022-12-11T09:04:29;18.00;92.30
21551;DHT22;10936;49.836;7.078;2022-12-11T09:06:55;18.00;92.30
21551;DHT22;10936;49.836;7.078;2022-12-11T09:09:20;18.00;92.30
21551;DHT22;10936;49.836;7.078;2022-12-11T09:11:46;18.00;92.30
21551;DHT22;10936;49.836;7.078;2022-12-11T09:14:12;18.00;92.30
21551;DHT22;10936;49.836;7.078;2022-12-11T09:16:38;18.00;92.40
21551;DHT22;10936;49.836;7.078;2022-12-11T09:19:11;18.00;92.40
21551;DHT22;10936;49.836;7.078;2022-12-11T09:21:38;18.00;92.30
21551;DHT22;10936;49.836;7.078;2022-12-11T09:24:04;18.00;92.30
21551;DHT22;10936;49.836;7.078;2022-12-11T09:26:30;18.00;92.30
21551;DHT22;10936;49.836;7.078;2022-12-11T09:28:55;18.00;92.30
21551;DHT22;10936;49.836;7.078;2022-12-11T09:31:26;18.00;92.30
21551;DHT22;10936;49.836;7.078;2022-12-11T09:33:58;18.00;92.30
21551;DHT22;10936;49.836;7.078;2022-12-11T09:36:24;18.00;92.30
21551;DHT22;10936;49.836;7.078;2022-12-11T09:38:51;18.00;92.30
21551;DHT22;10936;49.836;7.078;2022-12-11T09:46:51;18.00;92.70
21551;DHT22;10936;49.836;7.078;2022-12-11T09:49:38;18.00;92.30
21551;DHT22;10936;49.836;7.078;2022-12-11T09:55:00;18.00;92.30
21551;DHT22;10936;49.836;7.078;2022-12-11T09:57:47;18.00;92.30
21551;DHT22;10936;49.836;7.078;2022-12-11T10:00:31;18.00;92.30
21551;DHT22;10936;49.836;7.078;2022-12-11T10:03:23;18.00;92.30
21551;DHT22;10936;49.836;7.078;2022-12-11T10:06:01;18.00;92.30
21551;DHT22;10936;49.836;7.078;2022-12-11T10:08:55;18.00;92.30
21551;DHT22;10936;49.836;7.078;2022-12-11T10:11:55;18.00;92.30
21551;DHT22;10936;49.836;7.078;2022-12-11T10:17:01;18.00;92.30
21551;DHT22;10936;49.836;7.078;2022-12-11T10:19:30;18.00;92.30
21551;DHT22;10936;49.836;7.078;2022-12-11T10:21:56;18.00;92.30
21551;DHT22;10936;49.836;7.078;2022-12-11T10:24:38;18.00;92.30
21551;DHT22;10936;49.836;7.078;2022-12-11T10:27:23;18.00;92.30
21551;DHT22;10936;49.836;7.078;2022-12-11T10:35:54;18.00;92.30
21551;DHT22;10936;49.836;7.078;2022-12-11T10:38:37;18.00;92.30
21551;DHT22;10936;49.836;7.078;2022-12-11T10:41:08;18.00;92.60
21551;DHT22;10936;49.836;7.078;2022-12-11T10:43:38;18.00;92.30
21551;DHT22;10936;49.836;7.078;2022-12-11T10:46:05;18.00;92.30
21551;DHT22;10936;49.836;7.078;2022-12-11T10:48:32;18.00;92.30
21551;DHT22;10936;49.836;7.078;2022-12-11T10:51:01;18.00;92.30
21551;DHT22;10936;49.836;7.078;2022-12-11T10:53:27;18.00;92.30
21551;DHT22;10936;49.836;7.078;2022-12-11T10:55:53;18.00;92.30
21551;DHT22;10936;49.836;7.078;2022-12-11T10:58:24;18.00;92.30
21551;DHT22;10936;49.836;7.078;2022-12-11T11:01:09;18.00;92.30
21551;DHT22;10936;49.836;7.078;2022-12-11T11:06:23;18.00;92.30
21551;DHT22;10936;49.836;7.078;2022-12-11T11:08:52;18.00;92.30
21551;DHT22;10936;49.836;7.078;2022-12-11T11:13:50;18.00;92.30
21551;DHT22;10936;49.836;7.078;2022-12-11T11:16:18;18.00;92.40
21551;DHT22;10936;49.836;7.078;2022-12-11T11:18:53;18.00;92.50
21551;DHT22;10936;49.836;7.078;2022-12-11T11:21:22;18.10;92.50
21551;DHT22;10936;49.836;7.078;2022-12-11T11:23:49;18.10;92.60
21551;DHT22;10936;49.836;7.078;2022-12-11T11:26:15;18.10;92.60
21551;DHT22;10936;49.836;7.078;2022-12-11T11:28:47;18.10;92.60
21551;DHT22;10936;49.836;7.078;2022-12-11T11:31:15;18.10;92.60
21551;DHT22;10936;49.836;7.078;2022-12-11T11:34:05;18.10;93.00
21551;DHT22;10936;49.836;7.078;2022-12-11T11:36:34;18.10;92.60
21551;DHT22;10936;49.836;7.078;2022-12-11T11:39:39;18.10;92.70
21551;DHT22;10936;49.836;7.078;2022-12-11T11:42:12;18.10;92.70
21551;DHT22;10936;49.836;7.078;2022-12-11T11:44:58;18.20;92.80
21551;DHT22;10936;49.836;7.078;2022-12-11T11:47:31;18.20;92.80
21551;DHT22;10936;49.836;7.078;2022-12-11T11:50:06;18.20;92.80
21551;DHT22;10936;49.836;7.078;2022-12-11T11:52:49;18.20;92.80
21551;DHT22;10936;49.836;7.078;2022-12-11T11:55:34;18.20;92.80
21551;DHT22;10936;49.836;7.078;2022-12-11T11:58:21;18.20;92.80
21551;DHT22;10936;49.836;7.078;2022-12-11T12:00:55;18.20;92.80
21551;DHT22;10936;49.836;7.078;2022-12-11T12:03:22;18.20;92.80
21551;DHT22;10936;49.836;7.078;2022-12-11T12:06:05;18.20;92.80
21551;DHT22;10936;49.836;7.078;2022-12-11T12:08:50;18.20;93.00
21551;DHT22;10936;49.836;7.078;2022-12-11T12:11:33;18.30;93.00
21551;DHT22;10936;49.836;7.078;2022-12-11T12:14:17;18.30;93.10
21551;DHT22;10936;49.836;7.078;2022-12-11T12:16:50;18.30;93.10
21551;DHT22;10936;49.836;7.078;2022-12-11T12:19:47;18.30;93.10
21551;DHT22;10936;49.836;7.078;2022-12-11T12:27:52;18.30;93.20
21551;DHT22;10936;49.836;7.078;2022-12-11T12:30:20;18.30;93.20
21551;DHT22;10936;49.836;7.078;2022-12-11T12:38:25;18.40;93.10
21551;DHT22;10936;49.836;7.078;2022-12-11T12:48:54;18.40;93.00
21551;DHT22;10936;49.836;7.078;2022-12-11T12:51:21;18.50;93.10
21551;DHT22;10936;49.836;7.078;2022-12-11T12:53:53;18.50;93.20
21551;DHT22;10936;49.836;7.078;2022-12-11T12:56:20;18.50;93.10
21551;DHT22;10936;49.836;7.078;2022-12-11T12:58:46;18.50;93.10
21551;DHT22;10936;49.836;7.078;2022-12-11T13:03:57;18.50;93.20
21551;DHT22;10936;49.836;7.078;2022-12-11T13:06:46;18.50;93.20
21551;DHT22;10936;49.836;7.078;2022-12-11T13:09:23;18.50;93.20
21551;DHT22;10936;49.836;7.078;2022-12-11T13:11:52;18.50;93.10
21551;DHT22;10936;49.836;7.078;2022-12-11T13:16:51;18.50;93.10
21551;DHT22;10936;49.836;7.078;2022-12-11T13:24:30;18.50;93.20
21551;DHT22;10936;49.836;7.078;2022-12-11T13:27:10;18.50;93.20
21551;DHT22;10936;49.836;7.078;2022-12-11T13:29:46;18.40;93.20
21551;DHT22;10936;49.836;7.078;2022-12-11T13:34:43;18.50;93.20
21551;DHT22;10936;49.836;7.078;2022-12-11T13:37:37;18.50;93.20
21551;DHT22;10936;49.836;7.078;2022-12-11T13:40:08;18.50;93.20
21551;DHT22;10936;49.836;7.078;2022-12-11T13:42:53;18.50;93.20
21551;DHT22;10936;49.836;7.078;2022-12-11T13:46:18;18.50;93.20
21551;DHT22;10936;49.836;7.078;2022-12-11T13:48:28;18.50;93.20
21551;DHT22;10936;49.836;7.078;2022-12-11T13:50:55;18.50;93.20
21551;DHT22;10936;49.836;7.078;2022-12-11T13:53:22;18.50;93.30
21551;DHT22;10936;49.836;7.078;2022-12-11T13:55:59;18.50;93.30
21551;DHT22;10936;49.836;7.078;2022-12-11T13:58:26;18.50;93.20
21551;DHT22;10936;49.836;7.078;2022-12-11T14:01:03;18.50;93.20
21551;DHT22;10936;49.836;7.078;2022-12-11T14:03:31;18.50;93.20
21551;DHT22;10936;49.836;7.078;2022-12-11T14:05:57;18.50;93.20
21551;DHT22;10936;49.836;7.078;2022-12-11T14:08:28;18.50;93.20
21551;DHT22;10936;49.836;7.078;2022-12-11T14:10:55;18.50;93.20
21551;DHT22;10936;49.836;7.078;2022-12-11T14:13:30;18.50;93.10
21551;DHT22;10936;49.836;7.078;2022-12-11T14:15:58;18.50;93.10
21551;DHT22;10936;49.836;7.078;2022-12-11T14:18:26;18.50;93.10
21551;DHT22;10936;49.836;7.078;2022-12-11T14:21:02;18.50;93.10
21551;DHT22;10936;49.836;7.078;2022-12-11T14:23:31;18.50;93.10
21551;DHT22;10936;49.836;7.078;2022-12-11T14:28:26;18.50;93.20
21551;DHT22;10936;49.836;7.078;2022-12-11T14:30:54;18.50;93.20
21551;DHT22;10936;49.836;7.078;2022-12-11T14:33:24;18.50;93.20
21551;DHT22;10936;49.836;7.078;2022-12-11T14:35:53;18.50;93.20
21551;DHT22;10936;49.836;7.078;2022-12-11T14:38:31;18.50;93.20
21551;DHT22;10936;49.836;7.078;2022-12-11T14:41:02;18.50;93.20
21551;DHT22;10936;49.836;7.078;2022-12-11T14:43:41;18.50;93.30
21551;DHT22;10936;49.836;7.078;2022-12-11T14:46:14;18.50;93.30
21551;DHT22;10936;49.836;7.078;2022-12-11T14:48:48;18.50;93.30
21551;DHT22;10936;49.836;7.078;2022-12-11T14:51:18;18.50;93.30
21551;DHT22;10936;49.836;7.078;2022-12-11T14:53:48;18.50;93.30
21551;DHT22;10936;49.836;7.078;2022-12-11T14:56:18;18.50;93.30
21551;DHT22;10936;49.836;7.078;2022-12-11T14:58:55;18.50;93.40
21551;DHT22;10936;49.836;7.078;2022-12-11T15:01:28;18.50;93.40
21551;DHT22;10936;49.836;7.078;2022-12-11T15:04:21;18.50;93.40
21551;DHT22;10936;49.836;7.078;2022-12-11T15:06:49;18.50;93.40
21551;DHT22;10936;49.836;7.078;2022-12-11T15:14:34;18.50;93.50
21551;DHT22;10936;49.836;7.078;2022-12-11T15:17:00;18.50;93.50
21551;DHT22;10936;49.836;7.078;2022-12-11T15:19:31;18.50;93.60
21551;DHT22;10936;49.836;7.078;2022-12-11T15:22:02;18.50;93.60
21551;DHT22;10936;49.836;7.078;2022-12-11T15:24:42;18.50;93.60
21551;DHT22;10936;49.836;7.078;2022-12-11T15:27:39;18.50;93.60
21551;DHT22;10936;49.836;7.078;2022-12-11T15:33:03;18.50;93.70
21551;DHT22;10936;49.836;7.078;2022-12-11T15:35:29;18.50;93.70
21551;DHT22;10936;49.836;7.078;2022-12-11T15:37:56;18.50;93.70
21551;DHT22;10936;49.836;7.078;2022-12-11T15:40:22;18.50;93.80
21551;DHT22;10936;49.836;7.078;2022-12-11T15:42:49;18.50;93.80
21551;DHT22;10936;49.836;7.078;2022-12-11T15:45:18;18.50;93.80
21551;DHT22;10936;49.836;7.078;2022-12-11T15:47:45;18.50;93.80
21551;DHT22;10936;49.836;7.078;2022-12-11T15:50:19;18.50;93.80
21551;DHT22;10936;49.836;7.078;2022-12-11T15:52:46;18.50;93.80
21551;DHT22;10936;49.836;7.078;2022-12-11T15:55:12;18.50;93.80
21551;DHT22;10936;49.836;7.078;2022-12-11T15:57:44;18.50;93.90
21551;DHT22;10936;49.836;7.078;2022-12-11T16:00:13;18.50;94.00
21551;DHT22;10936;49.836;7.078;2022-12-11T16:02:39;18.50;94.20
21551;DHT22;10936;49.836;7.078;2022-12-11T16:05:05;18.50;94.30
21551;DHT22;10936;49.836;7.078;2022-12-11T16:07:31;18.50;94.30
21551;DHT22;10936;49.836;7.078;2022-12-11T16:09:57;18.60;94.40
21551;DHT22;10936;49.836;7.078;2022-12-11T16:12:23;18.60;94.30
21551;DHT22;10936;49.836;7.078;2022-12-11T16:14:48;18.60;94.30
21551;DHT22;10936;49.836;7.078;2022-12-11T16:17:14;18.60;94.40
21551;DHT22;10936;49.836;7.078;2022-12-11T16:19:41;18.60;94.30
21551;DHT22;10936;49.836;7.078;2022-12-11T16:22:08;18.60;94.30
21551;DHT22;10936;49.836;7.078;2022-12-11T16:24:34;18.60;94.10
21551;DHT22;10936;49.836;7.078;2022-12-11T16:27:00;18.60;94.00
21551;DHT22;10936;49.836;7.078;2022-12-11T16:29:25;18.60;93.90
21551;DHT22;10936;49.836;7.078;2022-12-11T16:31:51;18.60;93.90
21551;DHT22;10936;49.836;7.078;2022-12-11T16:34:17;18.60;93.90
21551;DHT22;10936;49.836;7.078;2022-12-11T16:36:43;18.60;93.80
21551;DHT22;10936;49.836;7.078;2022-12-11T16:39:12;18.60;93.80
21551;DHT22;10936;49.836;7.078;2022-12-11T16:41:37;18.60;93.80
21551;DHT22;10936;49.836;7.078;2022-12-11T16:44:03;18.60;93.70
21551;DHT22;10936;49.836;7.078;2022-12-11T16:46:29;18.60;93.70
21551;DHT22;10936;49.836;7.078;2022-12-11T16:48:54;18.60;93.80
21551;DHT22;10936;49.836;7.078;2022-12-11T16:51:20;18.60;93.90
21551;DHT22;10936;49.836;7.078;2022-12-11T16:53:45;18.60;93.90
21551;DHT22;10936;49.836;7.078;2022-12-11T16:56:11;18.60;93.90
21551;DHT22;10936;49.836;7.078;2022-12-11T16:58:37;18.60;93.90
21551;DHT22;10936;49.836;7.078;2022-12-11T17:01:10;18.70;93.90
21551;DHT22;10936;49.836;7.078;2022-12-11T17:03:38;18.70;93.80
21551;DHT22;10936;49.836;7.078;2022-12-11T17:06:13;18.70;93.80
21551;DHT22;10936;49.836;7.078;2022-12-11T17:08:39;18.60;93.70
21551;DHT22;10936;49.836;7.078;2022-12-11T17:11:09;18.70;93.70
21551;DHT22;10936;49.836;7.078;2022-12-11T17:13:35;18.70;93.60
21551;DHT22;10936;49.836;7.078;2022-12-11T17:16:09;18.70;93.50
21551;DHT22;10936;49.836;7.078;2022-12-11T17:18:35;18.70;93.50
21551;DHT22;10936;49.836;7.078;2022-12-11T17:21:06;18.70;93.40
21551;DHT22;10936;49.836;7.078;2022-12-11T17:23:32;18.70;93.30
21551;DHT22;10936;49.836;7.078;2022-12-11T17:25:58;18.70;93.30
21551;DHT22;10936;49.836;7.078;2022-12-11T17:28:23;18.70;93.20
21551;DHT22;10936;49.836;7.078;2022-12-11T17:30:49;18.70;93.20
21551;DHT22;10936;49.836;7.078;2022-12-11T17:33:16;18.70;93.10
21551;DHT22;10936;49.836;7.078;2022-12-11T17:35:42;18.60;93.10
21551;DHT22;10936;49.836;7.078;2022-12-11T17:38:07;18.60;93.10
21551;DHT22;10936;49.836;7.078;2022-12-11T17:40:33;18.70;93.10
21551;DHT22;10936;49.836;7.078;2022-12-11T17:42:58;18.70;93.10
21551;DHT22;10936;49.836;7.078;2022-12-11T17:45:24;18.60;93.10
21551;DHT22;10936;49.836;7.078;2022-12-11T17:47:50;18.60;93.10
21551;DHT22;10936;49.836;7.078;2022-12-11T17:50:16;18.60;93.10
21551;DHT22;10936;49.836;7.078;2022-12-11T17:52:41;18.60;93.10
21551;DHT22;10936;49.836;7.078;2022-12-11T17:55:07;18.70;93.20
21551;DHT22;10936;49.836;7.078;2022-12-11T17:57:33;18.60;93.10
21551;DHT22;10936;49.836;7.078;2022-12-11T17:59:58;18.60;93.10
21551;DHT22;10936;49.836;7.078;2022-12-11T18:02:24;18.60;93.20
21551;DHT22;10936;49.836;7.078;2022-12-11T18:04:50;18.60;93.20
21551;DHT22;10936;49.836;7.078;2022-12-11T18:07:16;18.60;93.20
21551;DHT22;10936;49.836;7.078;2022-12-11T18:09:42;18.60;93.20
21551;DHT22;10936;49.836;7.078;2022-12-11T18:12:08;18.60;93.20
21551;DHT22;10936;49.836;7.078;2022-12-11T18:14:35;18.60;93.20
21551;DHT22;10936;49.836;7.078;2022-12-11T18:17:01;18.60;93.20
21551;DHT22;10936;49.836;7.078;2022-12-11T18:19:27;18.60;93.20
21551;DHT22;10936;49.836;7.078;2022-12-11T18:21:53;18.60;93.30
21551;DHT22;10936;49.836;7.078;2022-12-11T18:24:19;18.60;93.30
21551;DHT22;10936;49.836;7.078;2022-12-11T18:26:46;18.60;93.30
21551;DHT22;10936;49.836;7.078;2022-12-11T18:29:12;18.60;93.30
21551;DHT22;10936;49.836;7.078;2022-12-11T18:31:38;18.60;93.30
21551;DHT22;10936;49.836;7.078;2022-12-11T18:34:06;18.60;93.30
21551;DHT22;10936;49.836;7.078;2022-12-11T18:36:32;18.60;93.30
21551;DHT22;10936;49.836;7.078;2022-12-11T18:38:58;18.60;93.40
21551;DHT22;10936;49.836;7.078;2022-12-11T18:41:24;18.60;93.40
21551;DHT22;10936;49.836;7.078;2022-12-11T18:43:50;18.60;93.40
21551;DHT22;10936;49.836;7.078;2022-12-11T18:46:18;18.60;93.40
21551;DHT22;10936;49.836;7.078;2022-12-11T18:48:45;18.60;93.50
21551;DHT22;10936;49.836;7.078;2022-12-11T18:51:17;18.60;93.50
21551;DHT22;10936;49.836;7.078;2022-12-11T18:53:44;18.60;93.50
21551;DHT22;10936;49.836;7.078;2022-12-11T18:56:15;18.60;93.50
21551;DHT22;10936;49.836;7.078;2022-12-11T18:58:42;18.70;93.50
21551;DHT22;10936;49.836;7.078;2022-12-11T19:01:11;18.60;93.50
21551;DHT22;10936;49.836;7.078;2022-12-11T19:03:38;18.60;93.50
21551;DHT22;10936;49.836;7.078;2022-12-11T19:06:12;18.60;93.60
21551;DHT22;10936;49.836;7.078;2022-12-11T19:08:40;18.60;93.60
21551;DHT22;10936;49.836;7.078;2022-12-11T19:11:05;18.60;93.60
21551;DHT22;10936;49.836;7.078;2022-12-11T19:13:32;18.60;93.60
21551;DHT22;10936;49.836;7.078;2022-12-11T19:15:58;18.60;93.60
21551;DHT22;10936;49.836;7.078;2022-12-11T19:18:23;18.60;93.60
21551;DHT22;10936;49.836;7.078;2022-12-11T19:20:51;18.60;93.70
21551;DHT22;10936;49.836;7.078;2022-12-11T19:23:17;18.60;93.70
21551;DHT22;10936;49.836;7.078;2022-12-11T19:25:45;18.60;93.70
21551;DHT22;10936;49.836;7.078;2022-12-11T19:28:11;18.60;93.70
21551;DHT22;10936;49.836;7.078;2022-12-11T19:30:47;18.60;93.80
21551;DHT22;10936;49.836;7.078;2022-12-11T19:33:14;18.60;93.80
21551;DHT22;10936;49.836;7.078;2022-12-11T19:35:40;18.60;93.80
21551;DHT22;10936;49.836;7.078;2022-12-11T19:38:07;18.60;93.80
21551;DHT22;10936;49.836;7.078;2022-12-11T19:40:38;18.60;93.80
21551;DHT22;10936;49.836;7.078;2022-12-11T19:43:03;18.60;93.80
21551;DHT22;10936;49.836;7.078;2022-12-11T19:45:29;18.60;93.80
21551;DHT22;10936;49.836;7.078;2022-12-11T19:47:54;18.60;93.80
21551;DHT22;10936;49.836;7.078;2022-12-11T19:50:20;18.60;93.80
21551;DHT22;10936;49.836;7.078;2022-12-11T19:52:46;18.60;93.80
21551;DHT22;10936;49.836;7.078;2022-12-11T19:55:11;18.60;93.80
21551;DHT22;10936;49.836;7.078;2022-12-11T19:57:39;18.60;93.80
21551;DHT22;10936;49.836;7.078;2022-12-11T20:00:05;18.60;93.80
21551;DHT22;10936;49.836;7.078;2022-12-11T20:02:32;18.60;93.90
21551;DHT22;10936;49.836;7.078;2022-12-11T20:04:57;18.60;93.90
21551;DHT22;10936;49.836;7.078;2022-12-11T20:07:23;18.60;93.90
21551;DHT22;10936;49.836;7.078;2022-12-11T20:09:48;18.60;93.90
21551;DHT22;10936;49.836;7.078;2022-12-11T20:12:14;18.60;93.90
21551;DHT22;10936;49.836;7.078;2022-12-11T20:14:40;18.60;93.90
21551;DHT22;10936;49.836;7.078;2022-12-11T20:17:05;18.60;93.90
21551;DHT22;10936;49.836;7.078;2022-12-11T20:19:31;18.60;93.90
21551;DHT22;10936;49.836;7.078;2022-12-11T20:21:57;18.60;93.90
21551;DHT22;10936;49.836;7.078;2022-12-11T20:24:22;18.60;93.90
21551;DHT22;10936;49.836;7.078;2022-12-11T20:26:48;18.60;93.90
21551;DHT22;10936;49.836;7.078;2022-12-11T20:29:14;18.60;93.90
21551;DHT22;10936;49.836;7.078;2022-12-11T20:31:40;18.60;93.90
21551;DHT22;10936;49.836;7.078;2022-12-11T20:34:07;18.60;94.00
21551;DHT22;10936;49.836;7.078;2022-12-11T20:36:33;18.60;94.00
21551;DHT22;10936;49.836;7.078;2022-12-11T20:38:59;18.60;94.00
21551;DHT22;10936;49.836;7.078;2022-12-11T20:41:25;18.60;94.00
21551;DHT22;10936;49.836;7.078;2022-12-11T20:43:52;18.60;94.00
21551;DHT22;10936;49.836;7.078;2022-12-11T20:46:20;18.60;94.00
21551;DHT22;10936;49.836;7.078;2022-12-11T20:48:46;18.60;94.00
21551;DHT22;10936;49.836;7.078;2022-12-11T20:51:13;18.60;94.00
21551;DHT22;10936;49.836;7.078;2022-12-11T20:53:40;18.60;94.10
21551;DHT22;10936;49.836;7.078;2022-12-11T20:56:15;18.60;94.10
21551;DHT22;10936;49.836;7.078;2022-12-11T20:58:41;18.60;94.10
21551;DHT22;10936;49.836;7.078;2022-12-11T21:01:15;18.60;94.00
21551;DHT22;10936;49.836;7.078;2022-12-11T21:03:41;18.60;94.00
21551;DHT22;10936;49.836;7.078;2022-12-11T21:06:07;18.60;94.00
21551;DHT22;10936;49.836;7.078;2022-12-11T21:08:33;18.60;94.00
21551;DHT22;10936;49.836;7.078;2022-12-11T21:10:59;18.60;93.90
21551;DHT22;10936;49.836;7.078;2022-12-11T21:13:24;18.60;93.90
21551;DHT22;10936;49.836;7.078;2022-12-11T21:15:50;18.60;93.80
21551;DHT22;10936;49.836;7.078;2022-12-11T21:18:18;18.60;93.80
21551;DHT22;10936;49.836;7.078;2022-12-11T21:20:43;18.60;93.70
21551;DHT22;10936;49.836;7.078;2022-12-11T21:23:09;18.60;93.70
21551;DHT22;10936;49.836;7.078;2022-12-11T21:25:37;18.60;93.70
21551;DHT22;10936;49.836;7.078;2022-12-11T21:28:04;18.60;93.60
21551;DHT22;10936;49.836;7.078;2022-12-11T21:30:30;18.60;93.60
21551;DHT22;10936;49.836;7.078;2022-12-11T21:32:56;18.60;93.60
21551;DHT22;10936;49.836;7.078;2022-12-11T21:35:21;18.60;93.60
21551;DHT22;10936;49.836;7.078;2022-12-11T21:37:47;18.50;93.50
21551;DHT22;10936;49.836;7.078;2022-12-11T21:40:13;18.60;93.60
21551;DHT22;10936;49.836;7.078;2022-12-11T21:42:38;18.50;93.50
21551;DHT22;10936;49.836;7.078;2022-12-11T21:45:04;18.60;93.50
21551;DHT22;10936;49.836;7.078;2022-12-11T21:47:30;18.60;93.50
21551;DHT22;10936;49.836;7.078;2022-12-11T21:49:56;18.60;93.50
21551;DHT22;10936;49.836;7.078;2022-12-11T21:52:21;18.50;93.40
21551;DHT22;10936;49.836;7.078;2022-12-11T21:54:47;18.50;93.40
21551;DHT22;10936;49.836;7.078;2022-12-11T21:57:13;18.60;93.40
21551;DHT22;10936;49.836;7.078;2022-12-11T21:59:39;18.50;93.40
21551;DHT22;10936;49.836;7.078;2022-12-11T22:02:04;18.50;93.30
21551;DHT22;10936;49.836;7.078;2022-12-11T22:04:30;18.50;93.30
21551;DHT22;10936;49.836;7.078;2022-12-11T22:06:56;18.50;93.30
21551;DHT22;10936;49.836;7.078;2022-12-11T22:09:21;18.50;93.30
21551;DHT22;10936;49.836;7.078;2022-12-11T22:11:47;18.50;93.20
21551;DHT22;10936;49.836;7.078;2022-12-11T22:14:14;18.50;93.20
21551;DHT22;10936;49.836;7.078;2022-12-11T22:16:42;18.50;93.20
21551;DHT22;10936;49.836;7.078;2022-12-11T22:19:08;18.50;93.20
21551;DHT22;10936;49.836;7.078;2022-12-11T22:21:34;18.50;93.10
21551;DHT22;10936;49.836;7.078;2022-12-11T22:24:00;18.50;93.10
21551;DHT22;10936;49.836;7.078;2022-12-11T22:26:26;18.50;93.10
21551;DHT22;10936;49.836;7.078;2022-12-11T22:28:52;18.50;93.00
